sensor_id;sensor_type;location;lat;lon;timestamp;pressure;altitude;pressure_sealevel;temperature;humidity
21011;BME280;10663;42.714;23.274;2023-03-02T00:00:20;95090.19;;;6.33;90.27
21011;BME280;10663;42.714;23.274;2023-03-02T00:02:02;95098.31;;;6.31;91.04
21011;BME280;10663;42.714;23.274;2023-03-02T00:03:36;95103.13;;;6.34;90.34
21011;BME280;10663;42.714;23.274;2023-03-02T00:05:09;95101.16;;;6.30;90.43
21011;BME280;10663;42.714;23.274;2023-03-02T00:06:40;95098.09;;;6.33;91.06
21011;BME280;10663;42.714;23.274;2023-03-02T00:08:12;95091.81;;;6.34;90.67
21011;BME280;10663;42.714;23.274;2023-03-02T00:09:45;95095.09;;;6.29;91.10
21011;BME280;10663;42.714;23.274;2023-03-02T00:11:16;95094.44;;;6.34;90.97
21011;BME280;10663;42.714;23.274;2023-03-02T00:12:47;95086.88;;;6.26;91.58
21011;BME280;10663;42.714;23.274;2023-03-02T00:14:17;95090.63;;;6.30;91.48
21011;BME280;10663;42.714;23.274;2023-03-02T00:15:48;95089.72;;;6.24;91.00
21011;BME280;10663;42.714;23.274;2023-03-02T00:17:19;95080.59;;;6.27;91.07
21011;BME280;10663;42.714;23.274;2023-03-02T00:18:57;95085.72;;;6.22;91.14
21011;BME280;10663;42.714;23.274;2023-03-02T00:20:28;95085.50;;;6.23;91.34
21011;BME280;10663;42.714;23.274;2023-03-02T00:21:58;95074.97;;;6.23;90.85
21011;BME280;10663;42.714;23.274;2023-03-02T00:23:29;95079.91;;;6.31;91.44
21011;BME280;10663;42.714;23.274;2023-03-02T00:25:02;95080.91;;;6.30;91.22
21011;BME280;10663;42.714;23.274;2023-03-02T00:26:34;95076.25;;;6.32;90.97
21011;BME280;10663;42.714;23.274;2023-03-02T00:28:05;95063.09;;;6.32;90.80
21011;BME280;10663;42.714;23.274;2023-03-02T00:29:36;95070.88;;;6.27;91.12
21011;BME280;10663;42.714;23.274;2023-03-02T00:31:07;95070.06;;;6.27;91.21
21011;BME280;10663;42.714;23.274;2023-03-02T00:32:38;95076.94;;;6.28;90.74
21011;BME280;10663;42.714;23.274;2023-03-02T00:34:09;95076.25;;;6.32;90.41
21011;BME280;10663;42.714;23.274;2023-03-02T00:35:40;95068.44;;;6.37;90.67
21011;BME280;10663;42.714;23.274;2023-03-02T00:37:11;95068.00;;;6.29;90.55
21011;BME280;10663;42.714;23.274;2023-03-02T00:38:42;95070.88;;;6.27;90.33
21011;BME280;10663;42.714;23.274;2023-03-02T00:40:14;95068.25;;;6.27;90.70
21011;BME280;10663;42.714;23.274;2023-03-02T00:41:47;95066.75;;;6.31;90.41
21011;BME280;10663;42.714;23.274;2023-03-02T00:43:18;95061.50;;;6.31;90.55
21011;BME280;10663;42.714;23.274;2023-03-02T00:44:51;95062.28;;;6.32;90.62
21011;BME280;10663;42.714;23.274;2023-03-02T00:46:23;95055.91;;;6.28;90.87
21011;BME280;10663;42.714;23.274;2023-03-02T00:47:54;95052.69;;;6.26;90.66
21011;BME280;10663;42.714;23.274;2023-03-02T00:49:25;95056.94;;;6.27;91.05
21011;BME280;10663;42.714;23.274;2023-03-02T00:50:59;95053.50;;;6.26;90.87
21011;BME280;10663;42.714;23.274;2023-03-02T00:52:31;95051.19;;;6.30;90.72
21011;BME280;10663;42.714;23.274;2023-03-02T00:54:01;95058.75;;;6.26;90.38
21011;BME280;10663;42.714;23.274;2023-03-02T00:55:32;95049.84;;;6.27;90.07
21011;BME280;10663;42.714;23.274;2023-03-02T00:57:03;95048.56;;;6.30;90.56
21011;BME280;10663;42.714;23.274;2023-03-02T00:58:35;95047.88;;;6.23;90.43
21011;BME280;10663;42.714;23.274;2023-03-02T01:00:07;95044.22;;;6.24;89.91
21011;BME280;10663;42.714;23.274;2023-03-02T01:01:42;95037.38;;;6.23;90.08
21011;BME280;10663;42.714;23.274;2023-03-02T01:03:13;95038.16;;;6.23;90.11
21011;BME280;10663;42.714;23.274;2023-03-02T01:04:44;95035.09;;;6.26;90.36
21011;BME280;10663;42.714;23.274;2023-03-02T01:06:18;95028.44;;;6.24;89.70
21011;BME280;10663;42.714;23.274;2023-03-02T01:07:49;95031.53;;;6.21;90.06
21011;BME280;10663;42.714;23.274;2023-03-02T01:09:20;95025.94;;;6.17;89.93
21011;BME280;10663;42.714;23.274;2023-03-02T01:10:52;95027.28;;;6.20;90.14
21011;BME280;10663;42.714;23.274;2023-03-02T01:12:23;95026.28;;;6.21;90.16
21011;BME280;10663;42.714;23.274;2023-03-02T01:13:54;95021.94;;;6.26;89.77
21011;BME280;10663;42.714;23.274;2023-03-02T01:15:26;95021.81;;;6.21;89.80
21011;BME280;10663;42.714;23.274;2023-03-02T01:16:57;95019.88;;;6.17;90.04
21011;BME280;10663;42.714;23.274;2023-03-02T01:18:28;95021.25;;;6.19;89.63
21011;BME280;10663;42.714;23.274;2023-03-02T01:19:59;95019.19;;;6.21;90.41
21011;BME280;10663;42.714;23.274;2023-03-02T01:21:30;95019.19;;;6.21;89.89
21011;BME280;10663;42.714;23.274;2023-03-02T01:23:01;95016.91;;;6.13;89.76
21011;BME280;10663;42.714;23.274;2023-03-02T01:24:32;95015.28;;;6.12;89.82
21011;BME280;10663;42.714;23.274;2023-03-02T01:26:03;95014.84;;;6.15;89.81
21011;BME280;10663;42.714;23.274;2023-03-02T01:27:34;95017.13;;;6.12;90.36
21011;BME280;10663;42.714;23.274;2023-03-02T01:29:05;95016.31;;;6.11;90.06
21011;BME280;10663;42.714;23.274;2023-03-02T01:30:36;95016.66;;;6.03;90.92
21011;BME280;10663;42.714;23.274;2023-03-02T01:32:07;95020.56;;;6.00;90.79
21011;BME280;10663;42.714;23.274;2023-03-02T01:33:38;95018.97;;;5.99;90.95
21011;BME280;10663;42.714;23.274;2023-03-02T01:35:09;95017.69;;;6.02;90.65
21011;BME280;10663;42.714;23.274;2023-03-02T01:36:40;95024.78;;;6.01;91.03
21011;BME280;10663;42.714;23.274;2023-03-02T01:38:14;95021.03;;;5.97;91.01
21011;BME280;10663;42.714;23.274;2023-03-02T01:39:46;95020.78;;;5.99;91.67
21011;BME280;10663;42.714;23.274;2023-03-02T01:41:16;95017.81;;;5.95;91.33
21011;BME280;10663;42.714;23.274;2023-03-02T01:42:52;95018.38;;;5.97;91.61
21011;BME280;10663;42.714;23.274;2023-03-02T01:46:15;95021.13;;;6.03;91.74
21011;BME280;10663;42.714;23.274;2023-03-02T01:47:54;95018.72;;;6.01;91.79
21011;BME280;10663;42.714;23.274;2023-03-02T01:49:26;95018.97;;;5.99;91.42
21011;BME280;10663;42.714;23.274;2023-03-02T01:51:01;95022.03;;;5.96;92.04
21011;BME280;10663;42.714;23.274;2023-03-02T01:52:35;95011.09;;;5.99;92.19
21011;BME280;10663;42.714;23.274;2023-03-02T01:54:12;95004.91;;;5.94;91.90
21011;BME280;10663;42.714;23.274;2023-03-02T01:55:52;95005.19;;;5.86;91.91
21011;BME280;10663;42.714;23.274;2023-03-02T01:57:29;95010.00;;;5.77;92.54
21011;BME280;10663;42.714;23.274;2023-03-02T01:59:04;94999.03;;;5.80;92.58
21011;BME280;10663;42.714;23.274;2023-03-02T02:00:38;94999.03;;;5.80;92.97
21011;BME280;10663;42.714;23.274;2023-03-02T02:02:09;95005.09;;;5.81;93.23
21011;BME280;10663;42.714;23.274;2023-03-02T02:03:44;95005.31;;;5.79;93.13
21011;BME280;10663;42.714;23.274;2023-03-02T02:05:23;95005.13;;;5.92;92.78
21011;BME280;10663;42.714;23.274;2023-03-02T02:07:00;95005.47;;;5.96;92.27
21011;BME280;10663;42.714;23.274;2023-03-02T02:08:31;94997.31;;;5.86;92.80
21011;BME280;10663;42.714;23.274;2023-03-02T02:10:03;94997.00;;;5.82;92.59
21011;BME280;10663;42.714;23.274;2023-03-02T02:11:35;94994.00;;;5.79;93.07
21011;BME280;10663;42.714;23.274;2023-03-02T02:13:09;94998.13;;;5.86;92.91
21011;BME280;10663;42.714;23.274;2023-03-02T02:14:41;95001.13;;;5.90;93.24
21011;BME280;10663;42.714;23.274;2023-03-02T02:16:13;94993.66;;;5.87;93.01
21011;BME280;10663;42.714;23.274;2023-03-02T02:17:45;94992.44;;;5.89;92.68
21011;BME280;10663;42.714;23.274;2023-03-02T02:19:37;94997.22;;;5.92;92.49
21011;BME280;10663;42.714;23.274;2023-03-02T02:21:10;95005.13;;;5.92;92.05
21011;BME280;10663;42.714;23.274;2023-03-02T02:24:45;95005.34;;;6.03;92.16
21011;BME280;10663;42.714;23.274;2023-03-02T02:26:25;95007.44;;;6.00;91.31
21011;BME280;10663;42.714;23.274;2023-03-02T02:27:58;95005.44;;;5.84;92.23
21011;BME280;10663;42.714;23.274;2023-03-02T02:29:41;95005.38;;;5.91;92.17
21011;BME280;10663;42.714;23.274;2023-03-02T02:31:17;95011.31;;;5.98;91.96
21011;BME280;10663;42.714;23.274;2023-03-02T02:32:51;95014.75;;;5.98;91.59
21011;BME280;10663;42.714;23.274;2023-03-02T02:34:32;95004.09;;;5.93;92.26
21011;BME280;10663;42.714;23.274;2023-03-02T02:36:07;95009.25;;;6.00;92.31
21011;BME280;10663;42.714;23.274;2023-03-02T02:37:44;95001.69;;;6.04;92.17
21011;BME280;10663;42.714;23.274;2023-03-02T02:39:24;95001.38;;;6.00;92.15
21011;BME280;10663;42.714;23.274;2023-03-02T02:41:01;95000.44;;;5.94;92.60
21011;BME280;10663;42.714;23.274;2023-03-02T02:42:39;95000.78;;;5.98;92.17
21011;BME280;10663;42.714;23.274;2023-03-02T02:44:16;94999.41;;;5.95;92.20
21011;BME280;10663;42.714;23.274;2023-03-02T02:45:51;94995.06;;;5.89;92.22
21011;BME280;10663;42.714;23.274;2023-03-02T02:47:23;95005.59;;;5.89;92.06
21011;BME280;10663;42.714;23.274;2023-03-02T02:48:54;95004.31;;;5.92;91.83
21011;BME280;10663;42.714;23.274;2023-03-02T02:50:31;95007.53;;;5.94;91.71
21011;BME280;10663;42.714;23.274;2023-03-02T02:52:04;95006.16;;;5.91;92.07
21011;BME280;10663;42.714;23.274;2023-03-02T02:53:56;95005.19;;;5.86;91.82
21011;BME280;10663;42.714;23.274;2023-03-02T02:55:34;94992.09;;;5.97;91.90
21011;BME280;10663;42.714;23.274;2023-03-02T02:57:05;94989.13;;;5.94;91.90
21011;BME280;10663;42.714;23.274;2023-03-02T02:58:41;94993.25;;;5.90;92.07
21011;BME280;10663;42.714;23.274;2023-03-02T03:00:18;94984.97;;;5.86;92.17
21011;BME280;10663;42.714;23.274;2023-03-02T03:01:50;94987.41;;;5.88;92.08
21011;BME280;10663;42.714;23.274;2023-03-02T03:03:34;94998.81;;;5.82;91.81
21011;BME280;10663;42.714;23.274;2023-03-02T03:05:15;94993.56;;;5.82;91.89
21011;BME280;10663;42.714;23.274;2023-03-02T03:07:00;94988.63;;;5.74;91.87
21011;BME280;10663;42.714;23.274;2023-03-02T03:10:33;94983.16;;;5.63;92.21
21011;BME280;10663;42.714;23.274;2023-03-02T03:12:17;94993.88;;;5.62;91.82
21011;BME280;10663;42.714;23.274;2023-03-02T03:13:57;94984.84;;;5.58;92.04
21011;BME280;10663;42.714;23.274;2023-03-02T03:15:30;94978.78;;;5.57;91.83
21011;BME280;10663;42.714;23.274;2023-03-02T03:17:01;94982.09;;;5.53;92.51
21011;BME280;10663;42.714;23.274;2023-03-02T03:18:32;94980.81;;;5.55;93.10
21011;BME280;10663;42.714;23.274;2023-03-02T03:20:03;94984.19;;;5.62;92.66
21011;BME280;10663;42.714;23.274;2023-03-02T03:21:41;94981.88;;;5.66;92.36
21011;BME280;10663;42.714;23.274;2023-03-02T03:23:12;94985.88;;;5.69;92.17
21011;BME280;10663;42.714;23.274;2023-03-02T03:24:44;94985.22;;;5.73;92.18
21011;BME280;10663;42.714;23.274;2023-03-02T03:26:15;94981.00;;;5.72;91.54
21011;BME280;10663;42.714;23.274;2023-03-02T03:27:46;94985.22;;;5.73;91.60
21011;BME280;10663;42.714;23.274;2023-03-02T03:29:19;94983.94;;;5.76;91.50
21011;BME280;10663;42.714;23.274;2023-03-02T03:30:54;94980.06;;;5.78;91.21
21011;BME280;10663;42.714;23.274;2023-03-02T03:32:25;94988.97;;;5.77;91.01
21011;BME280;10663;42.714;23.274;2023-03-02T03:34:00;94995.38;;;5.81;91.26
21011;BME280;10663;42.714;23.274;2023-03-02T03:35:34;94993.56;;;5.82;91.11
21011;BME280;10663;42.714;23.274;2023-03-02T03:37:08;94991.38;;;5.79;91.24
21011;BME280;10663;42.714;23.274;2023-03-02T03:38:40;94992.22;;;5.91;91.08
21011;BME280;10663;42.714;23.274;2023-03-02T03:40:11;94989.09;;;5.82;90.56
21011;BME280;10663;42.714;23.274;2023-03-02T03:41:45;94994.13;;;5.84;90.97
21011;BME280;10663;42.714;23.274;2023-03-02T03:43:16;94987.41;;;5.88;90.87
21011;BME280;10663;42.714;23.274;2023-03-02T03:44:52;94981.72;;;5.91;90.82
21011;BME280;10663;42.714;23.274;2023-03-02T03:46:25;94985.16;;;5.91;90.51
21011;BME280;10663;42.714;23.274;2023-03-02T03:47:56;94982.56;;;5.85;90.46
21011;BME280;10663;42.714;23.274;2023-03-02T03:49:27;94989.09;;;5.82;90.71
21011;BME280;10663;42.714;23.274;2023-03-02T03:50:59;94983.28;;;5.80;91.25
21011;BME280;10663;42.714;23.274;2023-03-02T03:52:30;94984.88;;;5.81;90.42
21011;BME280;10663;42.714;23.274;2023-03-02T03:54:22;94987.50;;;5.81;90.54
21011;BME280;10663;42.714;23.274;2023-03-02T03:55:53;94987.25;;;5.83;90.97
21011;BME280;10663;42.714;23.274;2023-03-02T03:57:27;94992.19;;;5.79;91.11
21011;BME280;10663;42.714;23.274;2023-03-02T03:58:59;94985.69;;;5.82;90.90
21011;BME280;10663;42.714;23.274;2023-03-02T04:00:38;94987.19;;;5.89;91.05
21011;BME280;10663;42.714;23.274;2023-03-02T04:02:13;94983.28;;;5.80;91.24
21011;BME280;10663;42.714;23.274;2023-03-02T04:03:46;94987.84;;;5.85;91.38
21011;BME280;10663;42.714;23.274;2023-03-02T04:05:17;94986.22;;;5.84;91.33
21011;BME280;10663;42.714;23.274;2023-03-02T04:06:49;94994.81;;;5.79;91.22
21011;BME280;10663;42.714;23.274;2023-03-02T04:08:20;94985.59;;;5.88;90.98
21011;BME280;10663;42.714;23.274;2023-03-02T04:09:51;94997.94;;;5.88;90.78
21011;BME280;10663;42.714;23.274;2023-03-02T04:11:37;94997.53;;;5.84;90.62
21011;BME280;10663;42.714;23.274;2023-03-02T04:13:08;94990.69;;;5.83;90.73
21011;BME280;10663;42.714;23.274;2023-03-02T04:14:40;94991.84;;;5.87;91.45
21011;BME280;10663;42.714;23.274;2023-03-02T04:16:11;94987.38;;;5.76;91.71
21011;BME280;10663;42.714;23.274;2023-03-02T04:17:43;94987.03;;;5.84;91.52
21011;BME280;10663;42.714;23.274;2023-03-02T04:19:15;94982.81;;;5.83;91.88
21011;BME280;10663;42.714;23.274;2023-03-02T04:20:50;94976.91;;;5.88;92.56
21011;BME280;10663;42.714;23.274;2023-03-02T04:22:21;94981.72;;;5.91;92.37
21011;BME280;10663;42.714;23.274;2023-03-02T04:23:53;94982.75;;;5.90;91.94
21011;BME280;10663;42.714;23.274;2023-03-02T04:25:27;94983.16;;;5.87;92.14
21011;BME280;10663;42.714;23.274;2023-03-02T04:27:18;94976.91;;;5.88;92.81
21011;BME280;10663;42.714;23.274;2023-03-02T04:28:49;94976.53;;;5.84;92.58
21011;BME280;10663;42.714;23.274;2023-03-02T04:30:24;94978.59;;;5.82;93.31
21011;BME280;10663;42.714;23.274;2023-03-02T04:31:55;94975.84;;;5.77;93.63
21011;BME280;10663;42.714;23.274;2023-03-02T04:33:27;94977.78;;;5.70;94.12
21011;BME280;10663;42.714;23.274;2023-03-02T04:34:58;94980.06;;;5.78;93.99
21011;BME280;10663;42.714;23.274;2023-03-02T04:36:32;94983.13;;;5.75;93.77
21011;BME280;10663;42.714;23.274;2023-03-02T04:38:06;94991.81;;;5.76;93.96
21011;BME280;10663;42.714;23.274;2023-03-02T04:39:37;94991.25;;;5.74;94.42
21011;BME280;10663;42.714;23.274;2023-03-02T04:41:08;94983.13;;;5.75;94.50
21011;BME280;10663;42.714;23.274;2023-03-02T04:42:38;94991.03;;;5.75;94.48
21011;BME280;10663;42.714;23.274;2023-03-02T04:44:09;94994.22;;;5.77;94.41
21011;BME280;10663;42.714;23.274;2023-03-02T04:45:40;94992.75;;;5.81;93.31
21011;BME280;10663;42.714;23.274;2023-03-02T04:47:11;94997.50;;;5.91;93.75
21011;BME280;10663;42.714;23.274;2023-03-02T04:48:42;95005.66;;;5.83;93.43
21011;BME280;10663;42.714;23.274;2023-03-02T04:50:14;95006.22;;;5.85;93.58
21011;BME280;10663;42.714;23.274;2023-03-02T04:51:47;95005.09;;;5.81;93.52
21011;BME280;10663;42.714;23.274;2023-03-02T04:53:18;95005.06;;;5.69;94.81
21011;BME280;10663;42.714;23.274;2023-03-02T04:54:50;95005.44;;;5.73;94.44
21011;BME280;10663;42.714;23.274;2023-03-02T04:56:21;95006.69;;;5.70;94.48
21011;BME280;10663;42.714;23.274;2023-03-02T04:57:52;95008.53;;;5.81;94.20
21011;BME280;10663;42.714;23.274;2023-03-02T04:59:26;95004.84;;;5.71;94.62
21011;BME280;10663;42.714;23.274;2023-03-02T05:00:58;95001.19;;;5.72;95.37
21011;BME280;10663;42.714;23.274;2023-03-02T05:02:31;95004.16;;;5.75;95.45
21011;BME280;10663;42.714;23.274;2023-03-02T05:04:02;95004.75;;;5.77;94.82
21011;BME280;10663;42.714;23.274;2023-03-02T05:05:34;94998.81;;;5.82;95.91
21011;BME280;10663;42.714;23.274;2023-03-02T05:07:05;94995.94;;;5.72;95.61
21011;BME280;10663;42.714;23.274;2023-03-02T05:08:36;95002.78;;;5.61;94.92
21011;BME280;10663;42.714;23.274;2023-03-02T05:10:08;94998.56;;;5.60;96.11
21011;BME280;10663;42.714;23.274;2023-03-02T05:11:39;95003.59;;;5.61;95.84
21011;BME280;10663;42.714;23.274;2023-03-02T05:13:10;95005.41;;;5.61;96.35
21011;BME280;10663;42.714;23.274;2023-03-02T05:14:41;95006.53;;;5.65;95.91
21011;BME280;10663;42.714;23.274;2023-03-02T05:16:11;95007.00;;;5.62;96.58
21011;BME280;10663;42.714;23.274;2023-03-02T05:17:42;95005.75;;;5.64;97.01
21011;BME280;10663;42.714;23.274;2023-03-02T05:19:13;95002.66;;;5.68;96.60
21011;BME280;10663;42.714;23.274;2023-03-02T05:20:45;95012.38;;;5.67;96.96
21011;BME280;10663;42.714;23.274;2023-03-02T05:22:16;95005.84;;;5.58;97.04
21011;BME280;10663;42.714;23.274;2023-03-02T05:23:47;95010.22;;;5.64;97.17
21011;BME280;10663;42.714;23.274;2023-03-02T05:25:18;95010.22;;;5.64;97.07
21011;BME280;10663;42.714;23.274;2023-03-02T05:26:49;95013.19;;;5.68;96.80
21011;BME280;10663;42.714;23.274;2023-03-02T05:28:21;95012.59;;;5.65;96.30
21011;BME280;10663;42.714;23.274;2023-03-02T05:29:52;95013.19;;;5.68;96.09
21011;BME280;10663;42.714;23.274;2023-03-02T05:31:49;95014.78;;;5.69;96.88
21011;BME280;10663;42.714;23.274;2023-03-02T05:33:20;95018.78;;;5.71;96.38
21011;BME280;10663;42.714;23.274;2023-03-02T05:34:51;95017.44;;;5.80;96.77
21011;BME280;10663;42.714;23.274;2023-03-02T05:36:22;95016.28;;;5.76;95.93
21011;BME280;10663;42.714;23.274;2023-03-02T05:37:53;95015.69;;;5.74;96.04
21011;BME280;10663;42.714;23.274;2023-03-02T05:39:24;95020.28;;;5.79;95.98
21011;BME280;10663;42.714;23.274;2023-03-02T05:40:57;95020.88;;;5.92;95.60
21011;BME280;10663;42.714;23.274;2023-03-02T05:42:27;95024.00;;;5.89;94.92
21011;BME280;10663;42.714;23.274;2023-03-02T05:43:58;95014.81;;;5.92;94.89
21011;BME280;10663;42.714;23.274;2023-03-02T05:45:37;95025.69;;;5.95;94.88
21011;BME280;10663;42.714;23.274;2023-03-02T05:47:08;95014.59;;;5.93;95.77
21011;BME280;10663;42.714;23.274;2023-03-02T05:48:39;95020.22;;;5.97;95.31
21011;BME280;10663;42.714;23.274;2023-03-02T05:50:11;95026.50;;;6.08;94.13
21011;BME280;10663;42.714;23.274;2023-03-02T05:51:42;95022.38;;;6.12;94.17
21011;BME280;10663;42.714;23.274;2023-03-02T05:53:13;95024.09;;;6.06;93.55
21011;BME280;10663;42.714;23.274;2023-03-02T05:54:44;95022.88;;;6.09;94.38
21011;BME280;10663;42.714;23.274;2023-03-02T05:56:15;95027.31;;;6.08;94.87
21011;BME280;10663;42.714;23.274;2023-03-02T05:57:46;95026.28;;;6.09;95.66
21011;BME280;10663;42.714;23.274;2023-03-02T05:59:18;95031.28;;;6.11;94.34
21011;BME280;10663;42.714;23.274;2023-03-02T06:00:49;95022.50;;;6.17;94.08
21011;BME280;10663;42.714;23.274;2023-03-02T06:02:20;95029.94;;;6.08;93.82
21011;BME280;10663;42.714;23.274;2023-03-02T06:03:51;95033.03;;;6.17;94.21
21011;BME280;10663;42.714;23.274;2023-03-02T06:05:21;95026.50;;;6.19;93.81
21011;BME280;10663;42.714;23.274;2023-03-02T06:06:54;95030.97;;;6.30;93.47
21011;BME280;10663;42.714;23.274;2023-03-02T06:08:25;95025.91;;;6.29;93.00
21011;BME280;10663;42.714;23.274;2023-03-02T06:09:55;95024.78;;;6.25;93.54
21011;BME280;10663;42.714;23.274;2023-03-02T06:11:26;95024.88;;;6.53;95.75
21011;BME280;10663;42.714;23.274;2023-03-02T06:12:59;95024.41;;;6.68;96.36
21011;BME280;10663;42.714;23.274;2023-03-02T06:14:30;95035.28;;;6.60;93.60
21011;BME280;10663;42.714;23.274;2023-03-02T06:16:02;95038.38;;;6.57;93.73
21011;BME280;10663;42.714;23.274;2023-03-02T06:17:33;95033.09;;;6.68;94.58
21011;BME280;10663;42.714;23.274;2023-03-02T06:19:04;95040.19;;;6.68;92.87
21011;BME280;10663;42.714;23.274;2023-03-02T06:20:35;95036.53;;;6.57;92.86
21011;BME280;10663;42.714;23.274;2023-03-02T06:22:05;95039.06;;;6.64;93.12
21011;BME280;10663;42.714;23.274;2023-03-02T06:23:36;95035.28;;;6.48;92.66
21011;BME280;10663;42.714;23.274;2023-03-02T06:25:09;95037.69;;;6.50;92.52
21011;BME280;10663;42.714;23.274;2023-03-02T06:26:40;95037.56;;;6.56;92.34
21011;BME280;10663;42.714;23.274;2023-03-02T06:28:11;95036.56;;;6.46;92.04
21011;BME280;10663;42.714;23.274;2023-03-02T06:29:42;95040.53;;;6.48;91.69
21011;BME280;10663;42.714;23.274;2023-03-02T06:31:12;95038.63;;;6.44;92.43
21011;BME280;10663;42.714;23.274;2023-03-02T06:32:44;95043.63;;;6.57;91.14
21011;BME280;10663;42.714;23.274;2023-03-02T06:34:15;95039.38;;;6.56;92.27
21011;BME280;10663;42.714;23.274;2023-03-02T06:35:46;95041.13;;;6.50;92.40
21011;BME280;10663;42.714;23.274;2023-03-02T06:37:18;95050.03;;;6.49;91.66
21011;BME280;10663;42.714;23.274;2023-03-02T06:38:49;95057.13;;;6.49;91.62
21011;BME280;10663;42.714;23.274;2023-03-02T06:40:19;95050.97;;;6.43;93.49
21011;BME280;10663;42.714;23.274;2023-03-02T06:41:51;95046.75;;;6.42;92.56
21011;BME280;10663;42.714;23.274;2023-03-02T06:43:21;95049.50;;;6.35;92.83
21011;BME280;10663;42.714;23.274;2023-03-02T06:44:53;95040.00;;;6.34;92.97
21011;BME280;10663;42.714;23.274;2023-03-02T06:46:24;95036.66;;;6.39;92.95
21011;BME280;10663;42.714;23.274;2023-03-02T06:47:56;95026.63;;;6.36;94.15
21011;BME280;10663;42.714;23.274;2023-03-02T06:49:26;95034.88;;;6.28;94.06
21011;BME280;10663;42.714;23.274;2023-03-02T06:50:57;95036.56;;;6.22;93.68
21011;BME280;10663;42.714;23.274;2023-03-02T06:52:28;95030.72;;;6.20;93.14
21011;BME280;10663;42.714;23.274;2023-03-02T06:53:59;95032.91;;;6.23;94.05
21011;BME280;10663;42.714;23.274;2023-03-02T06:55:30;95033.38;;;6.32;93.19
21011;BME280;10663;42.714;23.274;2023-03-02T06:57:01;95039.66;;;6.31;93.12
21011;BME280;10663;42.714;23.274;2023-03-02T06:58:32;95037.59;;;6.33;92.50
21011;BME280;10663;42.714;23.274;2023-03-02T07:00:06;95036.78;;;6.44;93.74
21011;BME280;10663;42.714;23.274;2023-03-02T07:01:46;95037.13;;;6.48;93.67
21011;BME280;10663;42.714;23.274;2023-03-02T07:03:18;95037.91;;;6.48;94.07
21011;BME280;10663;42.714;23.274;2023-03-02T07:04:49;95033.69;;;6.59;92.76
21011;BME280;10663;42.714;23.274;2023-03-02T07:06:20;95041.91;;;6.62;92.77
21011;BME280;10663;42.714;23.274;2023-03-02T07:07:51;95042.00;;;6.67;92.48
21011;BME280;10663;42.714;23.274;2023-03-02T07:09:22;95040.63;;;6.65;92.36
21011;BME280;10663;42.714;23.274;2023-03-02T07:10:53;95036.09;;;6.60;92.40
21011;BME280;10663;42.714;23.274;2023-03-02T07:12:24;95040.78;;;6.58;92.53
21011;BME280;10663;42.714;23.274;2023-03-02T07:13:55;95036.19;;;6.65;92.96
21011;BME280;10663;42.714;23.274;2023-03-02T07:15:26;95036.88;;;6.61;93.76
21011;BME280;10663;42.714;23.274;2023-03-02T07:16:56;95032.88;;;6.70;93.11
21011;BME280;10663;42.714;23.274;2023-03-02T07:18:29;95041.53;;;6.82;92.26
21011;BME280;10663;42.714;23.274;2023-03-02T07:20:00;95040.84;;;6.75;92.12
21011;BME280;10663;42.714;23.274;2023-03-02T07:21:31;95044.50;;;6.86;92.29
21011;BME280;10663;42.714;23.274;2023-03-02T07:23:03;95041.06;;;6.85;92.35
21011;BME280;10663;42.714;23.274;2023-03-02T07:24:34;95038.66;;;6.84;91.59
21011;BME280;10663;42.714;23.274;2023-03-02T07:26:05;95039.09;;;6.92;91.83
21011;BME280;10663;42.714;23.274;2023-03-02T07:27:40;95043.00;;;6.90;92.07
21011;BME280;10663;42.714;23.274;2023-03-02T07:29:11;95035.91;;;6.90;91.76
21011;BME280;10663;42.714;23.274;2023-03-02T07:30:46;95040.00;;;6.98;91.03
21011;BME280;10663;42.714;23.274;2023-03-02T07:32:21;95037.81;;;7.06;90.84
21011;BME280;10663;42.714;23.274;2023-03-02T07:33:52;95034.47;;;7.11;90.94
21011;BME280;10663;42.714;23.274;2023-03-02T07:35:23;95036.06;;;7.12;90.51
21011;BME280;10663;42.714;23.274;2023-03-02T07:36:55;95040.94;;;7.20;90.28
21011;BME280;10663;42.714;23.274;2023-03-02T07:38:26;95035.78;;;7.25;90.54
21011;BME280;10663;42.714;23.274;2023-03-02T07:39:57;95035.22;;;7.23;90.55
21011;BME280;10663;42.714;23.274;2023-03-02T07:41:28;95042.78;;;7.20;89.94
21011;BME280;10663;42.714;23.274;2023-03-02T07:42:58;95045.69;;;7.18;90.25
21011;BME280;10663;42.714;23.274;2023-03-02T07:44:30;95037.34;;;7.09;90.82
21011;BME280;10663;42.714;23.274;2023-03-02T07:46:02;95043.13;;;7.23;90.36
21011;BME280;10663;42.714;23.274;2023-03-02T07:47:34;95046.59;;;7.12;90.18
21011;BME280;10663;42.714;23.274;2023-03-02T07:49:05;95044.75;;;7.12;90.24
21011;BME280;10663;42.714;23.274;2023-03-02T07:50:36;95043.28;;;7.17;90.16
21011;BME280;10663;42.714;23.274;2023-03-02T07:52:07;95040.72;;;7.22;89.74
21011;BME280;10663;42.714;23.274;2023-03-02T07:53:38;95046.41;;;7.30;89.31
21011;BME280;10663;42.714;23.274;2023-03-02T07:55:09;95040.84;;;7.27;89.19
21011;BME280;10663;42.714;23.274;2023-03-02T07:56:40;95042.28;;;7.34;89.01
21011;BME280;10663;42.714;23.274;2023-03-02T07:58:11;95039.13;;;7.49;88.67
21011;BME280;10663;42.714;23.274;2023-03-02T07:59:42;95040.81;;;7.55;88.14
21011;BME280;10663;42.714;23.274;2023-03-02T08:01:13;95041.06;;;7.54;87.86
21011;BME280;10663;42.714;23.274;2023-03-02T08:02:44;95043.75;;;7.59;87.67
21011;BME280;10663;42.714;23.274;2023-03-02T08:04:15;95040.31;;;7.58;87.81
21011;BME280;10663;42.714;23.274;2023-03-02T08:05:46;95038.09;;;7.67;88.16
21011;BME280;10663;42.714;23.274;2023-03-02T08:07:17;95042.91;;;7.70;88.56
21011;BME280;10663;42.714;23.274;2023-03-02T08:08:48;95043.56;;;7.77;87.83
21011;BME280;10663;42.714;23.274;2023-03-02T08:10:19;95044.34;;;7.77;88.19
21011;BME280;10663;42.714;23.274;2023-03-02T08:11:50;95036.28;;;7.84;88.07
21011;BME280;10663;42.714;23.274;2023-03-02T08:13:23;95035.00;;;7.86;87.78
21011;BME280;10663;42.714;23.274;2023-03-02T08:14:54;95039.19;;;7.82;87.17
21011;BME280;10663;42.714;23.274;2023-03-02T08:16:24;95039.59;;;7.91;86.49